sensor_id;sensor_type;location;lat;lon;timestamp;P1;durP1;ratioP1;P2;durP2;ratioP2
1523;SDS011;755;53.658;10.118;2022-09-29T00:03:02;25.13;;;14.13;;
1523;SDS011;755;53.658;10.118;2022-09-29T00:13:06;27.90;;;14.52;;
1523;SDS011;755;53.658;10.118;2022-09-29T00:23:22;27.17;;;14.38;;
1523;SDS011;755;53.658;10.118;2022-09-29T00:33:25;28.20;;;14.65;;
1523;SDS011;755;53.658;10.118;2022-09-29T00:43:49;30.98;;;13.73;;
1523;SDS011;755;53.658;10.118;2022-09-29T00:53:55;26.45;;;13.90;;
1523;SDS011;755;53.658;10.118;2022-09-29T01:04:00;30.13;;;14.23;;
1523;SDS011;755;53.658;10.118;2022-09-29T01:14:07;24.35;;;14.10;;
1523;SDS011;755;53.658;10.118;2022-09-29T01:24:23;31.17;;;14.90;;
1523;SDS011;755;53.658;10.118;2022-09-29T01:34:59;22.75;;;12.75;;
1523;SDS011;755;53.658;10.118;2022-09-29T01:45:10;24.92;;;13.48;;
1523;SDS011;755;53.658;10.118;2022-09-29T01:55:21;24.05;;;14.93;;
1523;SDS011;755;53.658;10.118;2022-09-29T02:05:30;24.42;;;13.57;;
1523;SDS011;755;53.658;10.118;2022-09-29T02:15:36;26.10;;;13.75;;
1523;SDS011;755;53.658;10.118;2022-09-29T02:25:43;28.73;;;13.88;;
1523;SDS011;755;53.658;10.118;2022-09-29T02:35:53;24.25;;;13.57;;
1523;SDS011;755;53.658;10.118;2022-09-29T02:46:06;25.38;;;13.57;;
1523;SDS011;755;53.658;10.118;2022-09-29T02:56:25;26.20;;;14.10;;
1523;SDS011;755;53.658;10.118;2022-09-29T03:06:35;30.10;;;13.43;;
1523;SDS011;755;53.658;10.118;2022-09-29T03:16:41;24.40;;;13.02;;
1523;SDS011;755;53.658;10.118;2022-09-29T03:26:43;25.48;;;11.93;;
1523;SDS011;755;53.658;10.118;2022-09-29T03:36:50;24.42;;;12.35;;
1523;SDS011;755;53.658;10.118;2022-09-29T03:46:52;22.80;;;12.18;;
1523;SDS011;755;53.658;10.118;2022-09-29T03:56:55;25.13;;;12.18;;
1523;SDS011;755;53.658;10.118;2022-09-29T04:06:57;23.83;;;12.93;;
1523;SDS011;755;53.658;10.118;2022-09-29T04:17:00;23.40;;;12.55;;
1523;SDS011;755;53.658;10.118;2022-09-29T04:27:02;25.80;;;12.57;;
1523;SDS011;755;53.658;10.118;2022-09-29T04:37:07;20.13;;;11.35;;
1523;SDS011;755;53.658;10.118;2022-09-29T04:47:10;25.73;;;13.40;;
1523;SDS011;755;53.658;10.118;2022-09-29T04:57:14;26.30;;;13.02;;
1523;SDS011;755;53.658;10.118;2022-09-29T05:07:16;26.63;;;14.13;;
1523;SDS011;755;53.658;10.118;2022-09-29T05:17:19;31.13;;;14.40;;
1523;SDS011;755;53.658;10.118;2022-09-29T05:27:21;26.65;;;14.05;;
1523;SDS011;755;53.658;10.118;2022-09-29T05:37:24;25.80;;;13.95;;
1523;SDS011;755;53.658;10.118;2022-09-29T05:47:26;23.95;;;13.30;;
1523;SDS011;755;53.658;10.118;2022-09-29T05:57:29;28.48;;;14.00;;
1523;SDS011;755;53.658;10.118;2022-09-29T06:07:31;29.30;;;15.50;;
1523;SDS011;755;53.658;10.118;2022-09-29T06:17:35;27.90;;;14.70;;
1523;SDS011;755;53.658;10.118;2022-09-29T06:27:37;33.28;;;16.20;;
1523;SDS011;755;53.658;10.118;2022-09-29T06:37:40;31.25;;;15.95;;
1523;SDS011;755;53.658;10.118;2022-09-29T06:57:48;52.58;;;19.45;;
1523;SDS011;755;53.658;10.118;2022-09-29T07:07:50;41.55;;;20.15;;
1523;SDS011;755;53.658;10.118;2022-09-29T07:17:56;53.50;;;21.13;;
1523;SDS011;755;53.658;10.118;2022-09-29T07:27:58;53.70;;;23.63;;
1523;SDS011;755;53.658;10.118;2022-09-29T07:48:04;47.97;;;24.58;;
1523;SDS011;755;53.658;10.118;2022-09-29T07:58:06;60.65;;;27.17;;
1523;SDS011;755;53.658;10.118;2022-09-29T08:08:10;60.53;;;28.83;;
1523;SDS011;755;53.658;10.118;2022-09-29T08:18:12;67.22;;;29.48;;
1523;SDS011;755;53.658;10.118;2022-09-29T08:28:15;69.93;;;29.65;;
1523;SDS011;755;53.658;10.118;2022-09-29T08:38:17;57.72;;;28.40;;
1523;SDS011;755;53.658;10.118;2022-09-29T08:48:21;56.33;;;27.17;;
1523;SDS011;755;53.658;10.118;2022-09-29T08:58:25;61.47;;;28.45;;
1523;SDS011;755;53.658;10.118;2022-09-29T09:08:37;53.90;;;26.75;;
1523;SDS011;755;53.658;10.118;2022-09-29T09:29:34;47.45;;;24.65;;
1523;SDS011;755;53.658;10.118;2022-09-29T09:39:42;46.80;;;23.38;;
1523;SDS011;755;53.658;10.118;2022-09-29T09:49:50;37.58;;;19.20;;
1523;SDS011;755;53.658;10.118;2022-09-29T09:59:58;27.40;;;16.85;;
1523;SDS011;755;53.658;10.118;2022-09-29T10:10:13;32.38;;;16.10;;
1523;SDS011;755;53.658;10.118;2022-09-29T10:20:27;25.17;;;14.48;;
1523;SDS011;755;53.658;10.118;2022-09-29T10:30:33;23.08;;;13.27;;
1523;SDS011;755;53.658;10.118;2022-09-29T10:40:36;20.85;;;11.38;;
1523;SDS011;755;53.658;10.118;2022-09-29T10:50:55;16.58;;;10.75;;
1523;SDS011;755;53.658;10.118;2022-09-29T11:01:03;17.17;;;10.43;;
1523;SDS011;755;53.658;10.118;2022-09-29T11:11:16;17.35;;;11.23;;
1523;SDS011;755;53.658;10.118;2022-09-29T11:21:38;17.00;;;10.55;;
1523;SDS011;755;53.658;10.118;2022-09-29T11:32:08;22.05;;;10.80;;
1523;SDS011;755;53.658;10.118;2022-09-29T11:42:27;17.75;;;11.45;;
1523;SDS011;755;53.658;10.118;2022-09-29T11:52:49;19.95;;;10.65;;
1523;SDS011;755;53.658;10.118;2022-09-29T12:03:17;15.60;;;10.15;;
1523;SDS011;755;53.658;10.118;2022-09-29T12:13:30;13.02;;;8.48;;
1523;SDS011;755;53.658;10.118;2022-09-29T12:23:42;10.30;;;6.93;;
1523;SDS011;755;53.658;10.118;2022-09-29T12:33:48;12.20;;;8.15;;
1523;SDS011;755;53.658;10.118;2022-09-29T12:43:54;13.60;;;7.55;;
1523;SDS011;755;53.658;10.118;2022-09-29T13:04:27;9.25;;;5.35;;
1523;SDS011;755;53.658;10.118;2022-09-29T13:25:34;10.85;;;5.20;;
1523;SDS011;755;53.658;10.118;2022-09-29T13:35:46;9.15;;;5.75;;
1523;SDS011;755;53.658;10.118;2022-09-29T13:45:51;8.88;;;5.75;;
1523;SDS011;755;53.658;10.118;2022-09-29T13:55:54;15.63;;;8.57;;
1523;SDS011;755;53.658;10.118;2022-09-29T14:16:30;19.20;;;12.15;;
1523;SDS011;755;53.658;10.118;2022-09-29T14:26:49;21.05;;;13.43;;
1523;SDS011;755;53.658;10.118;2022-09-29T14:36:53;20.00;;;14.13;;
1523;SDS011;755;53.658;10.118;2022-09-29T14:47:23;22.98;;;14.43;;
1523;SDS011;755;53.658;10.118;2022-09-29T14:58:00;24.98;;;15.35;;
1523;SDS011;755;53.658;10.118;2022-09-29T15:08:22;24.63;;;16.08;;
1523;SDS011;755;53.658;10.118;2022-09-29T15:18:33;23.73;;;16.42;;
1523;SDS011;755;53.658;10.118;2022-09-29T15:28:52;24.48;;;16.52;;
1523;SDS011;755;53.658;10.118;2022-09-29T15:38:56;29.48;;;18.52;;
1523;SDS011;755;53.658;10.118;2022-09-29T15:49:07;25.98;;;17.08;;
1523;SDS011;755;53.658;10.118;2022-09-29T15:59:16;31.30;;;18.95;;
1523;SDS011;755;53.658;10.118;2022-09-29T16:09:20;31.93;;;18.13;;
1523;SDS011;755;53.658;10.118;2022-09-29T16:19:23;29.63;;;18.65;;
1523;SDS011;755;53.658;10.118;2022-09-29T16:29:30;24.60;;;16.23;;
1523;SDS011;755;53.658;10.118;2022-09-29T16:39:39;27.05;;;17.63;;
1523;SDS011;755;53.658;10.118;2022-09-29T16:49:45;25.23;;;16.65;;
1523;SDS011;755;53.658;10.118;2022-09-29T16:59:49;35.20;;;15.23;;
1523;SDS011;755;53.658;10.118;2022-09-29T17:09:55;26.77;;;16.45;;
1523;SDS011;755;53.658;10.118;2022-09-29T17:19:59;28.08;;;17.90;;
1523;SDS011;755;53.658;10.118;2022-09-29T17:30:06;24.10;;;15.55;;
1523;SDS011;755;53.658;10.118;2022-09-29T17:40:16;31.10;;;17.38;;
1523;SDS011;755;53.658;10.118;2022-09-29T17:50:24;36.13;;;21.38;;
1523;SDS011;755;53.658;10.118;2022-09-29T18:00:30;36.00;;;21.27;;
1523;SDS011;755;53.658;10.118;2022-09-29T18:10:42;38.67;;;22.00;;
1523;SDS011;755;53.658;10.118;2022-09-29T18:20:48;35.92;;;21.48;;
1523;SDS011;755;53.658;10.118;2022-09-29T18:30:54;37.55;;;22.58;;
1523;SDS011;755;53.658;10.118;2022-09-29T18:41:01;41.22;;;21.42;;
1523;SDS011;755;53.658;10.118;2022-09-29T18:51:07;42.17;;;23.23;;
1523;SDS011;755;53.658;10.118;2022-09-29T19:01:13;41.47;;;22.53;;
1523;SDS011;755;53.658;10.118;2022-09-29T19:11:19;39.65;;;22.55;;
1523;SDS011;755;53.658;10.118;2022-09-29T19:21:23;40.45;;;21.45;;
1523;SDS011;755;53.658;10.118;2022-09-29T19:31:27;37.25;;;22.00;;
1523;SDS011;755;53.658;10.118;2022-09-29T19:41:28;43.30;;;23.08;;
1523;SDS011;755;53.658;10.118;2022-09-29T19:51:32;42.13;;;22.15;;
1523;SDS011;755;53.658;10.118;2022-09-29T20:01:51;41.35;;;20.60;;
1523;SDS011;755;53.658;10.118;2022-09-29T20:11:55;53.03;;;27.33;;
1523;SDS011;755;53.658;10.118;2022-09-29T20:21:57;57.70;;;26.83;;
1523;SDS011;755;53.658;10.118;2022-09-29T20:32:00;42.70;;;24.33;;
1523;SDS011;755;53.658;10.118;2022-09-29T20:42:02;24.67;;;14.63;;
1523;SDS011;755;53.658;10.118;2022-09-29T20:52:06;41.20;;;21.08;;
1523;SDS011;755;53.658;10.118;2022-09-29T21:02:08;20.05;;;11.80;;
1523;SDS011;755;53.658;10.118;2022-09-29T21:12:12;14.65;;;9.52;;
1523;SDS011;755;53.658;10.118;2022-09-29T21:22:13;15.48;;;9.10;;
1523;SDS011;755;53.658;10.118;2022-09-29T21:32:17;16.90;;;7.97;;
1523;SDS011;755;53.658;10.118;2022-09-29T21:42:19;11.25;;;6.65;;
1523;SDS011;755;53.658;10.118;2022-09-29T21:52:23;11.60;;;6.15;;
1523;SDS011;755;53.658;10.118;2022-09-29T22:02:25;15.93;;;5.00;;
1523;SDS011;755;53.658;10.118;2022-09-29T22:12:29;9.25;;;4.65;;
1523;SDS011;755;53.658;10.118;2022-09-29T22:22:31;8.98;;;4.70;;
1523;SDS011;755;53.658;10.118;2022-09-29T22:32:35;5.53;;;3.55;;
1523;SDS011;755;53.658;10.118;2022-09-29T22:42:37;8.43;;;3.60;;
1523;SDS011;755;53.658;10.118;2022-09-29T22:52:41;5.45;;;3.85;;
1523;SDS011;755;53.658;10.118;2022-09-29T23:02:43;5.93;;;3.90;;
1523;SDS011;755;53.658;10.118;2022-09-29T23:12:48;7.68;;;4.45;;
1523;SDS011;755;53.658;10.118;2022-09-29T23:22:52;8.68;;;5.40;;
1523;SDS011;755;53.658;10.118;2022-09-29T23:32:55;9.55;;;5.25;;
1523;SDS011;755;53.658;10.118;2022-09-29T23:42:58;10.00;;;6.30;;
1523;SDS011;755;53.658;10.118;2022-09-29T23:53:02;11.20;;;6.47;;
